Time;durP1;ratioP1;P1;durP2;ratioP2;P2;SDS_P1;SDS_P2;PMS_P1;PMS_P2;Temp;Humidity;BMP_temperature;BMP_pressure;BME280_temperature;BME280_humidity;BME280_pressure;Samples;Min_cycle;Max_cycle;Signal;HPM_P1;HPM_P2
2023/02/11 00:00:40;;;;;;;31.50;20.10;;;;;;;-0.70;71.73;101030.03;105648;1262;71279;-74
2023/02/11 00:03:08;;;;;;;32.00;19.90;;;;;;;-0.72;71.87;101032.20;105703;1259;69021;-75
2023/02/11 00:05:38;;;;;;;32.10;19.80;;;;;;;-0.69;71.88;101033.32;105664;1259;72991;-74
2023/02/11 00:08:06;;;;;;;31.20;20.20;;;;;;;-0.57;71.61;101029.34;105874;1253;198998;-72
2023/02/11 00:10:35;;;;;;;35.30;21.00;;;;;;;-0.55;71.54;101026.80;105586;1256;59291;-69
2023/02/11 00:13:03;;;;;;;33.30;20.50;;;;;;;-0.58;71.82;101028.17;105630;1255;73425;-70
2023/02/11 00:15:33;;;;;;;36.00;21.10;;;;;;;-0.63;71.94;101023.30;105505;1253;70808;-69
2023/02/11 00:18:02;;;;;;;38.70;22.10;;;;;;;-0.66;72.02;101021.86;105820;1259;73833;-71
2023/02/11 00:20:30;;;;;;;31.50;21.10;;;;;;;-0.68;72.02;101027.87;106258;1256;59743;-71
2023/02/11 00:22:59;;;;;;;33.30;22.80;;;;;;;-0.70;72.14;101032.99;107178;1258;61350;-76
2023/02/11 00:25:28;;;;;;;30.80;20.30;;;;;;;-0.72;72.34;101031.70;107741;1254;74359;-76
2023/02/11 00:27:56;;;;;;;33.40;21.60;;;;;;;-0.73;72.44;101033.13;106264;1254;71626;-68
2023/02/11 00:30:24;;;;;;;32.50;20.40;;;;;;;-0.74;72.46;101032.64;105822;1253;72200;-69
2023/02/11 00:32:53;;;;;;;30.30;20.30;;;;;;;-0.62;72.45;101027.10;106624;1254;61246;-70
2023/02/11 00:35:21;;;;;;;33.60;21.60;;;;;;;-0.50;72.39;101027.98;106347;1257;61313;-71
2023/02/11 00:37:52;;;;;;;32.30;20.20;;;;;;;-0.51;72.51;101027.34;107379;1253;73022;-71
2023/02/11 00:40:21;;;;;;;35.30;22.00;;;;;;;-0.53;72.79;101025.14;107503;1256;69392;-72
2023/02/11 00:42:49;;;;;;;32.70;20.40;;;;;;;-0.54;72.63;101024.70;107308;1253;73508;-72
2023/02/11 00:45:20;;;;;;;32.60;21.20;;;;;;;-0.57;72.73;101024.11;107169;1253;59509;-72
2023/02/11 00:47:48;;;;;;;34.40;22.30;;;;;;;-0.61;72.77;101023.04;106697;1253;59593;-73
2023/02/11 00:50:16;;;;;;;36.30;22.90;;;;;;;-0.63;72.92;101019.48;106678;1253;74194;-72
2023/02/11 00:52:44;;;;;;;34.40;21.00;;;;;;;-0.66;73.22;101020.65;107794;1255;70170;-73
2023/02/11 00:55:13;;;;;;;35.10;22.00;;;;;;;-0.65;73.26;101015.36;108816;1254;72886;-72
2023/02/11 00:57:42;;;;;;;34.90;20.90;;;;;;;-0.51;73.03;101011.34;109191;1253;58173;-73
2023/02/11 01:00:11;;;;;;;32.90;21.00;;;;;;;-0.48;72.94;101010.84;108977;1253;60304;-72
2023/02/11 01:02:41;;;;;;;31.30;18.70;;;;;;;-0.48;73.04;101009.48;109192;1254;73019;-73
2023/02/11 01:05:14;;;;;;;34.30;22.20;;;;;;;-0.51;73.04;101008.90;108608;1260;70343;-74
2023/02/11 01:07:43;;;;;;;36.50;23.80;;;;;;;-0.57;73.10;101008.98;108677;1254;71408;-72
2023/02/11 01:10:13;;;;;;;38.60;23.80;;;;;;;-0.62;73.19;101007.08;108453;1254;58667;-73
2023/02/11 01:12:42;;;;;;;38.80;24.60;;;;;;;-0.66;73.36;101005.50;108422;1254;59854;-73
2023/02/11 01:15:13;;;;;;;38.20;23.30;;;;;;;-0.69;73.32;101011.58;108350;1254;71134;-73
2023/02/11 01:17:42;;;;;;;36.10;22.80;;;;;;;-0.60;73.20;101013.77;108104;1253;69591;-74
2023/02/11 01:20:14;;;;;;;36.20;23.50;;;;;;;-0.49;73.14;101014.36;108610;1258;71790;-72
2023/02/11 01:22:43;;;;;;;36.30;22.80;;;;;;;-0.52;73.21;101013.96;107642;1258;59777;-76
2023/02/11 01:25:12;;;;;;;36.10;23.50;;;;;;;-0.55;73.29;101016.02;107679;1255;59366;-73
2023/02/11 01:27:41;;;;;;;36.70;23.30;;;;;;;-0.60;73.29;101017.09;107034;1260;73895;-72
2023/02/11 01:30:11;;;;;;;35.60;23.40;;;;;;;-0.66;73.42;101019.06;107336;1259;70025;-74
2023/02/11 01:32:40;;;;;;;37.80;24.80;;;;;;;-0.70;73.67;101020.48;106110;1259;71689;-73
2023/02/11 01:35:08;;;;;;;45.30;26.20;;;;;;;-0.75;73.76;101015.12;105965;1259;59667;-75
2023/02/11 01:37:37;;;;;;;32.60;21.80;;;;;;;-0.79;74.03;101014.75;106013;1258;59736;-72
2023/02/11 01:40:07;;;;;;;41.80;24.20;;;;;;;-0.73;74.09;101013.66;106310;1253;72993;-69
2023/02/11 01:42:35;;;;;;;37.40;24.10;;;;;;;-0.70;74.01;101016.66;106355;1259;70202;-74
2023/02/11 01:45:56;;;;;;;35.60;23.00;;;;;;;-0.75;74.26;101022.10;106922;1258;73724;-76
2023/02/11 01:48:36;;;;;;;35.20;22.80;;;;;;;-0.85;74.70;101017.98;106389;1259;59820;-78
2023/02/11 01:51:17;;;;;;;37.00;22.30;;;;;;;-0.95;75.39;101008.81;106637;1259;61359;-77
2023/02/11 01:59:32;;;;;;;37.60;22.50;;;;;;;-0.90;75.81;100999.92;105769;1254;73646;-72
2023/02/11 02:02:04;;;;;;;39.80;23.00;;;;;;;-0.96;76.00;100999.13;106172;1257;59709;-72
2023/02/11 02:04:34;;;;;;;33.20;21.00;;;;;;;-1.02;76.21;101002.30;106280;1254;59564;-73
2023/02/11 02:07:07;;;;;;;36.60;21.40;;;;;;;-1.07;76.46;100998.69;105904;1256;72874;-74
2023/02/11 02:09:39;;;;;;;38.50;21.50;;;;;;;-1.09;76.78;100997.58;106010;1259;70636;-76
2023/02/11 02:12:07;;;;;;;33.60;20.50;;;;;;;-1.00;76.69;100993.19;106099;1257;71243;-74
2023/02/11 02:14:39;;;;;;;38.20;22.30;;;;;;;-0.96;76.63;100988.02;105825;1259;60799;-75
2023/02/11 02:17:25;;;;;;;32.80;21.70;;;;;;;-1.01;76.84;100988.20;105863;1257;61463;-76
2023/02/11 02:20:21;;;;;;;36.10;22.20;;;;;;;-1.06;77.13;100988.94;105921;1254;73014;-74
2023/02/11 02:22:57;;;;;;;38.50;21.00;;;;;;;-1.10;77.20;100985.80;105953;1254;69243;-75
2023/02/11 02:25:51;;;;;;;33.50;21.50;;;;;;;-1.13;77.44;100984.16;105754;1266;71266;-73
2023/02/11 02:28:50;;;;;;;32.60;20.80;;;;;;;-1.04;77.22;100976.15;105593;1259;59946;-72
2023/02/11 02:31:40;;;;;;;32.90;21.90;;;;;;;-1.05;77.34;100980.52;105848;1254;61291;-75
2023/02/11 02:34:14;;;;;;;37.60;22.80;;;;;;;-1.10;77.62;100985.26;106525;1254;73004;-71
2023/02/11 02:36:43;;;;;;;;;;;;;;;-1.14;77.68;100987.70;107602;1254;68790;-74
2023/02/11 02:39:19;;;;;;;35.50;21.50;;;;;;;-1.16;77.69;100984.13;107266;1253;73818;-72
2023/02/11 02:41:47;;;;;;;34.40;21.30;;;;;;;-1.18;77.81;100976.73;107950;1254;60631;-72
2023/02/11 02:44:15;;;;;;;34.10;19.90;;;;;;;-1.11;77.72;100972.77;106530;1259;60243;-77
2023/02/11 02:46:43;;;;;;;32.80;20.10;;;;;;;-0.98;77.65;100968.08;105922;1259;72162;-70
2023/02/11 02:49:12;;;;;;;34.50;21.60;;;;;;;-0.97;77.54;100965.27;105618;1254;69955;-74
2023/02/11 02:51:52;;;;;;;36.40;21.80;;;;;;;-1.02;77.79;100975.02;105867;1257;71940;-75
2023/02/11 02:54:54;;;;;;;34.80;21.70;;;;;;;-1.06;77.91;100974.48;105799;1254;59804;-75
2023/02/11 02:57:22;;;;;;;35.70;21.20;;;;;;;-1.12;78.17;100975.07;105814;1254;60275;-73
2023/02/11 02:59:50;;;;;;;32.20;20.90;;;;;;;-1.13;78.25;100975.31;105898;1254;71922;-73
2023/02/11 03:02:21;;;;;;;36.40;22.30;;;;;;;-1.03;78.02;100974.19;105900;1256;71416;-75
2023/02/11 03:05:07;;;;;;;35.80;22.20;;;;;;;-1.04;78.09;100974.05;105771;1259;72938;-72
2023/02/11 03:07:54;;;;;;;37.10;23.00;;;;;;;-1.10;78.30;100973.27;105876;1258;59810;-72
2023/02/11 03:10:27;;;;;;;37.70;24.10;;;;;;;-1.16;78.56;100976.99;105877;1253;59702;-69
2023/02/11 03:12:56;;;;;;;38.30;21.10;;;;;;;-1.21;78.69;100970.58;105504;1259;72252;-71
2023/02/11 03:15:25;;;;;;;33.20;20.10;;;;;;;-1.13;78.64;100966.59;105893;1260;70058;-71
2023/02/11 03:17:55;;;;;;;36.50;21.70;;;;;;;-1.02;78.40;100965.98;105975;1259;71479;-77
2023/02/11 03:20:23;;;;;;;33.20;20.30;;;;;;;-1.04;78.43;100964.13;107833;1256;59848;-77
2023/02/11 03:22:57;;;;;;;36.60;21.30;;;;;;;-1.06;78.45;100958.47;105843;1259;59720;-74
2023/02/11 03:25:28;;;;;;;38.60;23.20;;;;;;;-1.08;78.34;100952.82;105919;1254;70877;-74
2023/02/11 03:28:07;;;;;;;38.80;22.00;;;;;;;-1.11;78.47;100954.54;105799;1265;71344;-75
2023/02/11 03:30:39;;;;;;;38.00;22.30;;;;;;;-1.13;78.52;100953.41;105780;1254;72785;-73
2023/02/11 03:33:23;;;;;;;34.70;20.90;;;;;;;-1.05;78.29;100952.19;105833;1259;62628;-76
2023/02/11 03:35:59;;;;;;;36.80;20.80;;;;;;;-0.96;78.23;100949.41;105932;1255;61185;-76
2023/02/11 03:38:37;;;;;;;37.20;21.90;;;;;;;-0.99;78.36;100948.83;105962;1254;72612;-71
2023/02/11 03:41:05;;;;;;;36.70;22.20;;;;;;;-1.04;78.17;100942.92;106008;1254;70102;-71
2023/02/11 03:43:41;;;;;;;37.10;23.30;;;;;;;-1.08;78.15;100938.59;106923;1253;72483;-70
2023/02/11 03:46:09;;;;;;;37.50;21.60;;;;;;;-1.12;78.33;100934.41;107263;1254;59525;-76
2023/02/11 03:48:39;;;;;;;34.30;21.40;;;;;;;-1.11;78.36;100925.69;105715;1259;59813;-70
2023/02/11 03:51:08;;;;;;;35.00;22.20;;;;;;;-1.04;78.20;100926.73;105800;1264;71874;-72
2023/02/11 03:53:38;;;;;;;44.70;24.60;;;;;;;-1.04;78.31;100920.52;105800;1261;70962;-75
2023/02/11 03:56:08;;;;;;;39.60;23.10;;;;;;;-1.10;78.50;100916.94;105756;1257;73849;-75
2023/02/11 03:58:36;;;;;;;41.60;26.90;;;;;;;-1.15;78.72;100915.02;105830;1267;59892;-75
2023/02/11 04:01:07;;;;;;;46.30;25.90;;;;;;;-1.19;78.79;100911.73;105981;1263;60288;-75
2023/02/11 04:03:36;;;;;;;47.70;30.70;;;;;;;-1.19;79.05;100912.05;105747;1259;72260;-75
2023/02/11 04:06:04;;;;;;;44.50;28.70;;;;;;;-1.11;79.10;100916.61;105844;1254;71501;-72
2023/02/11 04:08:33;;;;;;;44.10;27.00;;;;;;;-1.13;79.33;100914.30;105784;1257;71943;-72
2023/02/11 04:11:03;;;;;;;43.10;26.00;;;;;;;-1.23;79.80;100912.23;105784;1260;60432;-72
2023/02/11 04:13:32;;;;;;;44.80;24.60;;;;;;;-1.30;80.17;100910.81;106170;1254;60435;-76
2023/02/11 04:16:00;;;;;;;39.60;23.80;;;;;;;-1.27;80.35;100908.26;106754;1258;72508;-76
2023/02/11 04:18:31;;;;;;;41.70;25.20;;;;;;;-1.20;80.16;100902.73;105920;1254;69843;-75
2023/02/11 04:20:59;;;;;;;40.10;23.40;;;;;;;-1.22;80.34;100900.73;105891;1255;70574;-74
2023/02/11 04:23:28;;;;;;;41.70;23.70;;;;;;;-1.26;80.31;100891.71;106267;1258;60483;-74
2023/02/11 04:25:56;;;;;;;42.20;23.30;;;;;;;-1.30;80.49;100890.30;105736;1254;60873;-74
2023/02/11 04:28:25;;;;;;;40.60;21.90;;;;;;;-1.30;80.67;100887.52;105973;1254;72853;-76
2023/02/11 04:30:54;;;;;;;41.40;23.00;;;;;;;-1.20;80.44;100888.84;106976;1253;70401;-79
2023/02/11 04:33:23;;;;;;;40.50;23.20;;;;;;;-1.17;80.21;100892.54;105939;1254;70918;-73
2023/02/11 04:35:51;;;;;;;36.90;23.20;;;;;;;-1.22;80.23;100889.77;106907;1255;60515;-74
2023/02/11 04:38:22;;;;;;;40.60;22.90;;;;;;;-1.26;80.29;100888.38;105939;1254;61267;-72
2023/02/11 04:40:50;;;;;;;37.30;22.30;;;;;;;-1.21;80.30;100882.10;105794;1257;73739;-79
2023/02/11 04:43:18;;;;;;;44.80;24.70;;;;;;;-1.15;80.06;100872.27;106449;1254;69479;-77
2023/02/11 04:45:46;;;;;;;38.80;24.30;;;;;;;-1.19;79.96;100863.91;109076;1254;71013;-78
2023/02/11 04:48:16;;;;;;;37.80;22.80;;;;;;;-1.24;80.04;100867.61;108576;1254;59528;-74
2023/02/11 04:50:45;;;;;;;42.50;23.30;;;;;;;-1.26;80.14;100873.46;107723;1257;60512;-74
2023/02/11 04:53:14;;;;;;;38.50;23.10;;;;;;;-1.18;80.25;100868.05;106368;1253;72661;-77
2023/02/11 04:55:43;;;;;;;41.60;24.80;;;;;;;-1.13;80.14;100862.65;106293;1258;70414;-76
2023/02/11 04:58:12;;;;;;;36.60;23.60;;;;;;;-1.19;80.19;100859.59;106279;1254;73345;-75
2023/02/11 05:00:40;;;;;;;41.20;23.00;;;;;;;-1.26;80.26;100852.95;106285;1256;60549;-81
2023/02/11 05:03:08;;;;;;;36.30;21.30;;;;;;;-1.31;80.62;100858.52;106413;1257;61596;-78
2023/02/11 05:05:39;;;;;;;38.60;21.90;;;;;;;-1.23;80.63;100856.98;106313;1254;74556;-77
2023/02/11 05:08:08;;;;;;;34.20;22.10;;;;;;;-1.24;80.29;100854.42;106361;1254;70668;-77
2023/02/11 05:10:37;;;;;;;45.10;24.40;;;;;;;-1.33;80.75;100858.45;106229;1256;73629;-70
2023/02/11 05:13:06;;;;;;;40.10;21.70;;;;;;;-1.41;80.84;100859.27;107242;1254;60424;-72
2023/02/11 05:15:34;;;;;;;37.70;21.70;;;;;;;-1.36;81.04;100857.52;105681;1253;61017;-74
2023/02/11 05:18:03;;;;;;;39.00;22.70;;;;;;;-1.35;81.04;100857.14;105929;1254;73873;-74
2023/02/11 05:20:31;;;;;;;34.70;22.10;;;;;;;-1.46;81.17;100852.39;105848;1254;71257;-72
2023/02/11 05:22:59;;;;;;;39.10;21.30;;;;;;;-1.52;81.54;100858.38;105718;1254;72549;-76
2023/02/11 05:25:28;;;;;;;36.10;21.40;;;;;;;-1.57;81.77;100855.60;106028;1257;60527;-75
2023/02/11 05:27:57;;;;;;;37.80;20.90;;;;;;;-1.49;81.91;100855.14;106159;1254;60344;-75
2023/02/11 05:30:25;;;;;;;39.10;19.70;;;;;;;-1.48;81.97;100855.75;106374;1257;73566;-75
2023/02/11 05:32:54;;;;;;;35.30;21.10;;;;;;;-1.53;81.99;100852.85;106870;1256;71689;-74
2023/02/11 05:35:22;;;;;;;37.70;21.60;;;;;;;-1.52;82.18;100848.31;106974;1253;71145;-77
2023/02/11 05:37:55;;;;;;;37.80;21.30;;;;;;;-1.41;81.99;100843.51;106599;1253;60335;-76
2023/02/11 05:40:24;;;;;;;34.80;21.30;;;;;;;-1.39;81.81;100848.11;106188;1254;61227;-74
2023/02/11 05:42:56;;;;;;;36.20;21.10;;;;;;;-1.42;81.84;100844.21;108067;1254;75031;-74
2023/02/11 05:45:25;;;;;;;39.50;20.60;;;;;;;-1.42;81.84;100847.17;108619;1253;70498;-73
2023/02/11 05:47:54;;;;;;;33.10;20.10;;;;;;;-1.31;81.60;100841.51;109045;1254;72297;-75
2023/02/11 05:50:22;;;;;;;34.50;21.60;;;;;;;-1.18;81.24;100833.48;108101;1253;60395;-74
2023/02/11 05:52:52;;;;;;;34.30;20.00;;;;;;;-1.18;80.82;100833.64;107390;1253;60982;-74
2023/02/11 05:55:21;;;;;;;36.00;20.90;;;;;;;-1.21;80.82;100832.03;107941;1254;74603;-73
2023/02/11 05:57:49;;;;;;;32.90;19.50;;;;;;;-1.22;80.80;100828.77;106690;1254;71345;-74
2023/02/11 06:00:18;;;;;;;34.30;19.90;;;;;;;-1.11;80.48;100827.94;106619;1254;71934;-68
2023/02/11 06:02:47;;;;;;;33.40;20.80;;;;;;;-1.07;80.18;100820.65;106475;1257;60539;-75
2023/02/11 06:05:17;;;;;;;36.60;21.10;;;;;;;-1.11;80.08;100807.95;106660;1254;60428;-74
2023/02/11 06:07:46;;;;;;;34.60;20.10;;;;;;;-1.15;80.14;100806.91;106538;1256;73481;-73
2023/02/11 06:10:15;;;;;;;34.90;19.60;;;;;;;-1.12;79.96;100803.48;106323;1254;69656;-72
2023/02/11 06:12:43;;;;;;;34.30;21.00;;;;;;;-1.04;79.56;100804.15;106546;1257;71679;-72
2023/02/11 06:15:14;;;;;;;34.00;20.60;;;;;;;-1.05;79.40;100803.16;106427;1253;60450;-74
2023/02/11 06:17:43;;;;;;;37.10;20.10;;;;;;;-1.10;79.54;100800.96;107056;1252;61019;-72
2023/02/11 06:20:14;;;;;;;34.20;20.50;;;;;;;-1.05;79.50;100799.52;107773;1254;72876;-72
2023/02/11 06:22:43;;;;;;;35.60;20.00;;;;;;;-0.97;79.18;100803.69;107777;1254;70184;-75
2023/02/11 06:25:12;;;;;;;39.60;20.10;;;;;;;-0.97;78.86;100790.83;107988;1253;70255;-74
2023/02/11 06:27:44;;;;;;;39.70;19.70;;;;;;;-1.00;78.99;100785.55;107971;1256;60880;-75
2023/02/11 06:30:13;;;;;;;35.00;18.70;;;;;;;-0.97;79.01;100776.75;108165;1254;60398;-74
2023/02/11 06:32:45;;;;;;;40.20;20.50;;;;;;;-0.83;78.83;100771.56;108409;1253;72840;-75
2023/02/11 06:35:15;;;;;;;36.50;21.50;;;;;;;-0.75;78.58;100768.27;108546;1253;69935;-73
2023/02/11 06:37:46;;;;;;;42.60;21.10;;;;;;;-0.74;78.35;100766.66;107871;1252;72736;-75
2023/02/11 06:40:15;;;;;;;31.10;18.70;;;;;;;-0.72;78.23;100764.67;108624;1254;59070;-74
2023/02/11 06:42:44;;;;;;;33.20;18.90;;;;;;;-0.68;78.07;100764.48;108153;1253;60352;-75
2023/02/11 06:45:13;;;;;;;36.00;21.60;;;;;;;-0.54;77.70;100762.61;108484;1256;73841;-74
2023/02/11 06:47:42;;;;;;;37.00;22.50;;;;;;;-0.47;77.15;100759.48;107867;1254;70349;-72
2023/02/11 06:50:13;;;;;;;38.00;22.00;;;;;;;-0.50;76.97;100761.00;108805;1253;73085;-76
2023/02/11 06:52:42;;;;;;;36.70;20.90;;;;;;;-0.54;76.80;100752.01;109302;1252;59499;-72
2023/02/11 06:55:10;;;;;;;42.70;22.80;;;;;;;-0.56;76.87;100749.27;108131;1254;60053;-74
2023/02/11 06:57:41;;;;;;;34.00;21.80;;;;;;;-0.44;76.91;100741.92;106224;1252;74129;-74
2023/02/11 07:00:10;;;;;;;35.90;20.30;;;;;;;-0.37;76.51;100749.47;106303;1255;70875;-71
2023/02/11 07:02:39;;;;;;;37.90;20.10;;;;;;;-0.40;76.42;100742.78;105877;1254;72468;-74
2023/02/11 07:05:08;;;;;;;41.50;24.30;;;;;;;-0.44;76.57;100732.54;106048;1256;60801;-73
2023/02/11 07:07:36;;;;;;;36.40;20.30;;;;;;;-0.45;76.81;100732.58;105940;1254;60388;-74
2023/02/11 07:10:07;;;;;;;34.40;19.80;;;;;;;-0.38;76.92;100736.08;105817;1255;72710;-74
2023/02/11 07:12:39;;;;;;;34.60;20.30;;;;;;;-0.35;76.97;100731.94;106105;1254;69290;-72
2023/02/11 07:15:07;;;;;;;35.80;21.00;;;;;;;-0.40;77.05;100741.02;105988;1254;72382;-76
2023/02/11 07:17:36;;;;;;;42.20;21.10;;;;;;;-0.44;77.41;100733.75;106041;1255;61980;-76
2023/02/11 07:20:05;;;;;;;35.00;21.80;;;;;;;-0.39;77.55;100734.56;106047;1257;60597;-76
2023/02/11 07:22:33;;;;;;;37.10;21.20;;;;;;;-0.35;77.78;100724.80;106024;1254;74917;-77
2023/02/11 07:25:03;;;;;;;35.60;20.70;;;;;;;-0.39;77.87;100733.52;107018;1257;68540;-75
2023/02/11 07:27:32;;;;;;;37.60;21.00;;;;;;;-0.44;78.07;100731.67;106956;1254;73451;-78
2023/02/11 07:30:00;;;;;;;33.30;19.30;;;;;;;-0.46;78.44;100737.16;106222;1253;60438;-77
2023/02/11 07:32:29;;;;;;;44.00;22.60;;;;;;;-0.39;78.44;100728.65;106061;1254;61124;-74
2023/02/11 07:35:02;;;;;;;37.80;22.30;;;;;;;-0.42;78.52;100726.86;106014;1256;74609;-75
2023/02/11 07:37:33;;;;;;;44.40;24.50;;;;;;;-0.48;78.73;100728.73;107611;1254;71293;-76
2023/02/11 07:40:02;;;;;;;39.10;22.50;;;;;;;-0.50;79.41;100724.67;108403;1254;73848;-76
2023/02/11 07:42:30;;;;;;;42.50;23.90;;;;;;;-0.41;79.50;100723.52;107247;1254;61062;-77
2023/02/11 07:44:59;;;;;;;40.70;23.90;;;;;;;-0.36;79.71;100719.27;106367;1252;61542;-74
2023/02/11 07:47:27;;;;;;;47.30;26.00;;;;;;;-0.38;80.00;100715.20;106453;1257;72908;-80
2023/02/11 07:49:57;;;;;;;40.90;23.30;;;;;;;-0.40;80.02;100715.27;106391;1254;71555;-79
2023/02/11 07:52:28;;;;;;;42.10;22.80;;;;;;;-0.37;80.33;100709.21;107486;1257;71693;-75
2023/02/11 07:54:57;;;;;;;42.70;23.40;;;;;;;-0.25;79.96;100690.86;108883;1253;60306;-74
2023/02/11 07:57:26;;;;;;;43.00;23.30;;;;;;;-0.25;79.86;100685.80;108049;1253;60268;-77
2023/02/11 07:59:55;;;;;;;43.40;24.80;;;;;;;-0.29;79.99;100674.33;106243;1253;74955;-78
2023/02/11 08:02:24;;;;;;;41.60;24.60;;;;;;;-0.32;80.25;100671.90;106308;1254;69362;-80
2023/02/11 08:04:53;;;;;;;48.40;27.00;;;;;;;-0.22;80.28;100662.88;106074;1258;73503;-78
2023/02/11 08:07:21;;;;;;;52.70;28.50;;;;;;;-0.15;80.17;100658.70;105908;1253;60543;-74
2023/02/11 08:09:54;;;;;;;43.10;25.90;;;;;;;-0.18;80.03;100666.33;105862;1254;60784;-74
2023/02/11 08:12:22;;;;;;;41.60;23.40;;;;;;;-0.23;80.55;100671.45;106026;1253;74187;-75
2023/02/11 08:14:50;;;;;;;41.50;24.90;;;;;;;-0.16;80.50;100670.08;106046;1255;70562;-77
2023/02/11 08:17:18;;;;;;;44.90;25.50;;;;;;;-0.17;80.52;100666.30;106003;1253;73538;-79
2023/02/11 08:19:47;;;;;;;49.90;25.30;;;;;;;-0.24;80.68;100656.89;106023;1253;60437;-71
2023/02/11 08:22:15;;;;;;;41.60;24.50;;;;;;;-0.18;80.94;100650.46;105912;1257;60330;-72
2023/02/11 08:24:43;;;;;;;45.10;24.20;;;;;;;-0.12;80.86;100649.33;106044;1254;73847;-72
2023/02/11 08:27:13;;;;;;;48.30;24.20;;;;;;;-0.14;80.86;100654.96;105950;1254;70610;-71
2023/02/11 08:29:41;;;;;;;48.30;25.60;;;;;;;-0.13;80.82;100653.01;105731;1257;72338;-71
2023/02/11 08:32:14;;;;;;;45.60;27.50;;;;;;;-0.01;80.67;100651.01;105847;1252;60613;-71
2023/02/11 08:34:42;;;;;;;46.20;27.20;;;;;;;0.04;80.67;100652.15;105785;1254;60514;-72
2023/02/11 08:37:10;;;;;;;47.50;25.40;;;;;;;0.01;80.62;100649.33;105662;1256;74710;-73
2023/02/11 08:39:39;;;;;;;50.30;24.50;;;;;;;-0.03;80.93;100651.31;105901;1256;70911;-71
2023/02/11 08:42:07;;;;;;;43.80;23.40;;;;;;;0.01;80.87;100647.77;105916;1253;72645;-71
2023/02/11 08:44:35;;;;;;;41.50;24.40;;;;;;;0.06;80.73;100641.41;105835;1253;60506;-74
2023/02/11 08:47:04;;;;;;;44.60;25.50;;;;;;;0.01;80.96;100637.88;106013;1253;61444;-70
2023/02/11 08:49:32;;;;;;;46.20;25.90;;;;;;;-0.03;81.18;100630.38;105871;1256;73788;-72
2023/02/11 08:52:03;;;;;;;47.40;27.70;;;;;;;0.05;81.15;100630.18;106113;1254;71585;-70
2023/02/11 08:54:33;;;;;;;55.20;31.80;;;;;;;0.10;81.19;100626.26;106610;1257;73783;-71
2023/02/11 08:57:01;;;;;;;54.20;25.90;;;;;;;0.09;81.24;100619.88;106470;1254;60863;-72
2023/02/11 08:59:30;;;;;;;49.60;28.20;;;;;;;0.07;81.41;100614.04;105763;1254;60581;-72
2023/02/11 09:01:58;;;;;;;51.40;28.80;;;;;;;0.17;81.14;100615.95;105980;1256;74559;-69
2023/02/11 09:04:25;;;;;;;51.20;28.20;;;;;;;0.21;81.07;100613.33;105887;1253;71575;-70
2023/02/11 09:06:54;;;;;;;51.40;28.60;;;;;;;0.16;80.78;100608.84;105928;1256;72660;-73
2023/02/11 09:09:22;;;;;;;49.20;26.70;;;;;;;0.14;81.11;100608.59;105521;1253;61907;-73
2023/02/11 09:11:50;;;;;;;47.70;27.70;;;;;;;0.23;80.95;100606.40;105977;1253;60528;-73
2023/02/11 09:14:20;;;;;;;47.30;29.00;;;;;;;0.23;80.99;100600.16;105857;1255;73652;-72
2023/02/11 09:16:50;;;;;;;51.50;29.60;;;;;;;0.17;80.93;100589.46;105640;1257;70629;-72
2023/02/11 09:19:24;;;;;;;48.20;26.00;;;;;;;0.15;81.26;100582.27;105835;1253;72255;-72
2023/02/11 09:21:52;;;;;;;48.30;28.20;;;;;;;0.25;81.00;100574.96;106070;1253;62546;-76
2023/02/11 09:24:20;;;;;;;55.40;30.40;;;;;;;0.29;80.99;100566.58;105899;1253;60451;-75
2023/02/11 09:26:48;;;;;;;53.90;30.30;;;;;;;0.25;81.12;100563.48;105878;1256;74607;-75
2023/02/11 09:29:16;;;;;;;48.30;28.10;;;;;;;0.24;81.30;100558.45;105671;1256;69399;-74
2023/02/11 09:31:45;;;;;;;52.70;27.30;;;;;;;0.32;81.36;100567.93;105797;1253;72501;-75
2023/02/11 09:34:14;;;;;;;49.00;30.70;;;;;;;0.34;81.18;100549.36;105924;1253;60456;-74
2023/02/11 09:36:42;;;;;;;49.30;28.40;;;;;;;0.33;81.25;100547.52;105862;1253;60476;-73
2023/02/11 09:39:13;;;;;;;49.50;27.90;;;;;;;0.34;81.34;100541.20;105847;1254;74919;-74
2023/02/11 09:41:54;;;;;;;43.70;27.50;;;;;;;0.44;81.29;100551.98;105742;1259;71528;-73
2023/02/11 09:44:24;;;;;;;48.60;29.40;;;;;;;0.45;81.38;100553.34;105433;1257;73639;-77
2023/02/11 09:46:56;;;;;;;44.40;24.50;;;;;;;0.38;81.90;100548.13;105901;1253;60414;-76
2023/02/11 09:49:48;;;;;;;46.50;29.70;;;;;;;0.40;82.10;100543.11;105786;1254;60505;-77
2023/02/11 09:52:36;;;;;;;45.50;27.80;;;;;;;0.44;82.09;100536.45;105827;1256;73459;-72
2023/02/11 09:55:29;;;;;;;46.40;28.70;;;;;;;0.37;82.16;100526.41;105868;1253;70538;-71
2023/02/11 09:57:57;;;;;;;51.30;29.10;;;;;;;0.32;82.78;100521.09;106320;1253;71859;-75
2023/02/11 10:00:31;;;;;;;47.40;28.10;;;;;;;0.38;82.84;100525.59;106850;1253;61088;-73
2023/02/11 10:03:25;;;;;;;49.20;27.90;;;;;;;0.42;82.68;100518.23;107003;1253;60371;-79
2023/02/11 10:06:06;;;;;;;47.60;27.20;;;;;;;0.36;82.71;100511.10;106018;1253;73479;-74
2023/02/11 10:08:50;;;;;;;55.10;28.60;;;;;;;0.32;83.21;100509.23;106041;1253;69516;-75
2023/02/11 10:11:25;;;;;;;48.20;28.40;;;;;;;0.43;83.08;100502.00;105906;1253;73417;-76
2023/02/11 10:14:31;;;;;;;47.30;29.20;;;;;;;0.45;83.07;100498.23;105902;1254;60550;-75
2023/02/11 10:17:25;;;;;;;49.90;28.70;;;;;;;0.42;83.29;100490.20;106011;1253;60575;-73
2023/02/11 10:20:05;;;;;;;44.60;27.60;;;;;;;0.45;83.22;100473.48;105898;1256;74886;-77
2023/02/11 10:22:35;;;;;;;48.50;29.70;;;;;;;0.57;82.89;100464.45;105941;1253;69459;-76
2023/02/11 10:25:39;;;;;;;50.10;30.00;;;;;;;0.57;82.66;100461.83;106141;1254;71530;-76
2023/02/11 10:28:21;;;;;;;46.00;28.30;;;;;;;0.55;82.93;100462.80;107177;1253;61556;-76
2023/02/11 10:31:10;;;;;;;50.60;29.30;;;;;;;0.65;82.89;100457.18;107897;1256;60326;-77
2023/02/11 10:33:41;;;;;;;50.60;29.20;;;;;;;0.66;83.07;100447.59;107670;1253;72603;-76
2023/02/11 10:36:13;;;;;;;47.50;28.40;;;;;;;0.64;83.18;100449.79;108052;1255;69210;-75
2023/02/11 10:38:41;;;;;;;45.60;30.20;;;;;;;0.73;83.45;100445.06;107860;1253;71324;-76
2023/02/11 10:41:14;;;;;;;51.40;30.40;;;;;;;0.82;83.24;100444.73;107455;1256;60552;-76
2023/02/11 10:43:42;;;;;;;53.00;29.80;;;;;;;0.83;83.02;100439.64;107555;1253;60323;-74
2023/02/11 10:46:20;;;;;;;52.40;28.80;;;;;;;0.81;82.70;100442.49;107770;1255;73617;-77
2023/02/11 10:48:51;;;;;;;44.80;28.40;;;;;;;0.89;82.64;100433.69;107409;1253;70234;-74
2023/02/11 10:51:22;;;;;;;48.40;29.50;;;;;;;0.90;82.43;100430.27;107083;1258;71336;-78
2023/02/11 10:54:07;;;;;;;43.60;25.70;;;;;;;0.85;82.44;100429.90;107369;1253;60404;-75
2023/02/11 10:56:37;;;;;;;47.90;27.00;;;;;;;0.89;82.30;100423.38;107924;1254;60206;-75
2023/02/11 10:59:20;;;;;;;41.80;26.30;;;;;;;0.94;81.85;100412.25;107577;1254;72706;-73
2023/02/11 11:01:50;;;;;;;45.30;24.40;;;;;;;0.91;82.01;100410.04;108707;1253;71219;-73
2023/02/11 11:04:43;;;;;;;45.50;28.50;;;;;;;0.89;82.19;100405.45;108447;1252;72698;-75
2023/02/11 11:07:21;;;;;;;47.40;29.40;;;;;;;0.98;82.47;100398.80;109206;1256;60983;-78
2023/02/11 11:10:05;;;;;;;47.20;29.00;;;;;;;0.97;82.32;100381.38;109488;1252;61116;-81
2023/02/11 11:12:55;;;;;;;44.50;28.90;;;;;;;0.94;82.25;100379.16;109546;1252;73712;-80
2023/02/11 11:15:28;;;;;;;42.90;28.30;;;;;;;0.99;82.29;100361.61;108475;1253;70035;-78
2023/02/11 11:18:16;;;;;;;46.20;30.80;;;;;;;1.11;82.08;100365.23;108070;1254;71568;-80
2023/02/11 11:21:00;;;;;;;47.70;30.00;;;;;;;1.08;82.04;100361.73;106759;1254;60436;-77
2023/02/11 11:23:30;;;;;;;48.90;30.50;;;;;;;0.98;82.40;100354.11;109367;1253;59557;-78
2023/02/11 11:26:06;;;;;;;46.30;29.00;;;;;;;1.01;82.52;100343.17;109530;1253;72860;-79
2023/02/11 11:28:50;;;;;;;46.80;28.90;;;;;;;1.03;82.63;100353.14;109271;1253;70415;-79
2023/02/11 11:31:21;;;;;;;47.70;29.40;;;;;;;0.91;83.15;100345.65;108439;1253;72311;-77